Terminal Aerodrome Forecast
Issued by NWS Buffalo, NY

Current Version | Previous Version | Text Only | Print | Product List | Glossary On
Versions: 1 2 3 4 5 6 7 8 9 10 11 12 13 14 15 16 17 18 19 20 21 22 23 24 25 26 27 28 29 30 31 32
000
FTUS41 KBUF 311700
TAFBUF
TAF
KBUF 311730Z 3118/0118 23011G17KT P6SM -SN BKN015 BKN025
     FM312000 24009KT P6SM BKN040
     FM010600 30009KT P6SM OVC020
     FM011000 34008KT P6SM OVC015
     FM011600 05009KT 6SM -SN OVC025=

USA.gov is the U.S. government's official web portal to all federal, state and local government web resources and services.